Time;durP1;ratioP1;P1;durP2;ratioP2;P2;SDS_P1;SDS_P2;PMS_P1;PMS_P2;Temp;Humidity;BMP_temperature;BMP_pressure;BME280_temperature;BME280_humidity;BME280_pressure;Samples;Min_cycle;Max_cycle;Signal;HPM_P1;HPM_P2
2022/12/05 00:00:33;;;;;;;26.92;14.95;;;5.00;99.90;;;;;;5114768;27;20489;-88
2022/12/05 00:03:03;;;;;;;27.45;14.18;;;4.90;99.90;;;;;;5132541;27;20130;-88
2022/12/05 00:05:28;;;;;;;27.77;14.75;;;5.00;99.90;;;;;;5132244;27;20039;-87
2022/12/05 00:07:54;;;;;;;25.85;15.45;;;5.00;99.90;;;;;;5115915;27;20530;-87
2022/12/05 00:10:20;;;;;;;30.67;14.82;;;5.00;99.90;;;;;;5133568;27;20066;-87
2022/12/05 00:12:45;;;;;;;25.65;14.15;;;5.30;99.90;;;;;;5098082;27;20486;-86
2022/12/05 00:15:11;;;;;;;26.65;13.35;;;5.00;99.90;;;;;;5132970;27;20047;-88
2022/12/05 00:17:39;;;;;;;24.92;13.95;;;5.00;99.90;;;;;;5114793;27;20039;-87
2022/12/05 00:20:07;;;;;;;29.83;15.32;;;5.10;99.90;;;;;;5098519;27;20130;-87
2022/12/05 00:22:36;;;;;;;28.23;15.27;;;5.10;99.90;;;;;;5114320;27;20049;-87
2022/12/05 00:25:05;;;;;;;29.98;16.25;;;5.10;99.90;;;;;;5115274;27;20074;-87
2022/12/05 00:27:31;;;;;;;28.90;15.05;;;5.10;99.90;;;;;;5131094;27;20039;-87
2022/12/05 00:29:57;;;;;;;29.38;15.25;;;5.10;99.90;;;;;;5114512;27;20053;-87
2022/12/05 00:32:22;;;;;;;30.02;15.52;;;5.10;99.90;;;;;;5115522;27;20099;-87
2022/12/05 00:34:48;;;;;;;32.28;17.58;;;5.90;99.90;;;;;;5131798;27;20043;-87
2022/12/05 00:37:14;;;;;;;29.58;16.02;;;5.10;99.90;;;;;;5132507;27;20042;-86
2022/12/05 00:39:39;;;;;;;30.50;15.80;;;5.20;99.90;;;;;;5099179;27;20074;-87
2022/12/05 00:42:05;;;;;;;29.85;16.75;;;5.10;99.90;;;;;;5114667;27;20041;-87
2022/12/05 00:44:31;;;;;;;31.00;16.80;;;4.50;99.90;;;;;;5131043;27;20230;-87
2022/12/05 00:46:56;;;;;;;35.00;18.35;;;5.20;99.90;;;;;;5117143;27;20063;-87
2022/12/05 00:49:22;;;;;;;31.35;16.73;;;5.20;99.90;;;;;;5103416;27;20061;-86
2022/12/05 00:51:48;;;;;;;31.38;17.55;;;5.20;99.90;;;;;;5119827;27;20068;-88
2022/12/05 00:54:15;;;;;;;29.30;15.85;;;6.20;99.90;;;;;;5137068;27;20050;-88
2022/12/05 00:56:41;;;;;;;30.83;16.98;;;5.20;99.90;;;;;;5136940;27;20078;-87
2022/12/05 00:59:08;;;;;;;31.45;16.40;;;5.90;99.90;;;;;;5120149;27;20050;-87
2022/12/05 01:01:36;;;;;;;35.60;16.60;;;6.10;99.90;;;;;;5137358;27;20038;-88
2022/12/05 01:04:09;;;;;;;26.60;14.45;;;5.20;99.90;;;;;;5137093;27;20057;-88
2022/12/05 01:06:35;;;;;;;29.92;15.73;;;5.30;99.90;;;;;;5119003;27;20039;-87
2022/12/05 01:09:02;;;;;;;29.92;15.75;;;5.30;99.90;;;;;;5135148;27;20521;-87
2022/12/05 01:11:28;;;;;;;25.77;14.68;;;5.30;99.90;;;;;;5137478;27;20038;-88
2022/12/05 01:13:55;;;;;;;27.30;15.07;;;5.30;99.90;;;;;;5133566;27;20508;-87
2022/12/05 01:16:24;;;;;;;29.50;14.48;;;5.30;99.90;;;;;;5114743;27;20035;-87
2022/12/05 01:18:50;;;;;;;21.58;13.45;;;5.30;99.90;;;;;;5129912;27;20074;-87
2022/12/05 01:21:16;;;;;;;24.20;13.90;;;5.40;99.90;;;;;;5130823;27;20046;-87
2022/12/05 01:23:42;;;;;;;21.02;12.75;;;6.50;99.90;;;;;;5129807;27;20046;-87
2022/12/05 01:26:11;;;;;;;21.13;11.77;;;5.40;99.90;;;;;;5129945;27;20110;-87
2022/12/05 01:28:38;;;;;;;19.73;10.93;;;5.40;99.90;;;;;;5130481;27;20049;-88
2022/12/05 01:31:07;;;;;;;20.50;12.23;;;5.40;99.90;;;;;;5113474;27;20043;-87
2022/12/05 01:33:34;;;;;;;15.20;9.95;;;5.50;99.90;;;;;;5112430;27;20064;-87
2022/12/05 01:36:00;;;;;;;18.23;10.95;;;5.50;99.90;;;;;;5129393;27;20039;-87
2022/12/05 01:38:26;;;;;;;19.52;11.02;;;5.50;99.90;;;;;;5095759;27;20125;-87
2022/12/05 01:41:00;;;;;;;24.67;11.63;;;5.50;99.90;;;;;;5078221;27;20078;-87
2022/12/05 01:43:26;;;;;;;19.25;9.57;;;5.50;99.90;;;;;;5129537;27;20094;-87
2022/12/05 01:45:52;;;;;;;16.33;9.70;;;5.60;99.90;;;;;;5113224;27;20043;-88
2022/12/05 01:48:22;;;;;;;17.08;10.57;;;5.60;99.90;;;;;;5095428;27;20034;-87
2022/12/05 01:50:49;;;;;;;20.25;9.02;;;5.60;99.90;;;;;;5130855;27;20061;-88
2022/12/05 01:53:16;;;;;;;16.35;9.40;;;5.60;99.90;;;;;;5128610;27;20049;-87
2022/12/05 01:55:43;;;;;;;16.40;8.65;;;5.60;99.90;;;;;;5112617;27;20486;-88
2022/12/05 01:58:10;;;;;;;16.95;10.18;;;5.60;99.90;;;;;;5112186;27;20046;-87
2022/12/05 02:00:35;;;;;;;18.30;9.38;;;5.70;99.90;;;;;;5129013;27;20037;-87
2022/12/05 02:03:06;;;;;;;15.18;9.32;;;5.70;99.90;;;;;;5129945;27;20046;-86
2022/12/05 02:05:35;;;;;;;14.73;7.25;;;6.70;99.90;;;;;;5111788;27;20035;-87
2022/12/05 02:08:10;;;;;;;11.77;8.25;;;6.10;99.90;;;;;;5130022;27;20053;-87
2022/12/05 02:10:48;;;;;;;11.73;8.35;;;5.70;99.90;;;;;;5111099;27;20527;-87
2022/12/05 02:13:29;;;;;;;13.55;7.90;;;5.70;99.90;;;;;;5111532;27;20486;-87
2022/12/05 02:16:03;;;;;;;13.45;8.27;;;5.70;99.90;;;;;;5112486;27;20493;-88
2022/12/05 02:18:31;;;;;;;12.88;8.05;;;5.70;99.90;;;;;;5110796;27;20041;-88
2022/12/05 02:21:14;;;;;;;13.38;7.60;;;5.70;99.90;;;;;;5129656;27;20041;-88
2022/12/05 02:24:14;;;;;;;12.73;7.03;;;5.70;99.90;;;;;;5127935;27;20058;-87
2022/12/05 02:26:59;;;;;;;13.45;7.07;;;5.70;99.90;;;;;;5128778;27;20129;-87
2022/12/05 02:29:54;;;;;;;11.27;7.38;;;5.60;99.90;;;;;;5129543;27;20046;-87
2022/12/05 02:32:29;;;;;;;10.18;6.63;;;5.60;99.90;;;;;;5106483;27;20038;-86
2022/12/05 02:35:01;;;;;;;13.73;7.38;;;5.60;99.90;;;;;;5128259;27;20053;-88
2022/12/05 02:37:28;;;;;;;12.23;7.13;;;5.70;99.90;;;;;;5112159;27;20042;-87
2022/12/05 02:40:25;;;;;;;14.77;7.20;;;5.60;99.90;;;;;;5111101;27;20461;-87
2022/12/05 02:43:07;;;;;;;10.15;7.15;;;5.30;99.90;;;;;;5120439;27;20054;-87
2022/12/05 02:45:36;;;;;;;10.57;7.20;;;5.60;99.90;;;;;;5110755;27;20118;-87
2022/12/05 02:48:02;;;;;;;10.32;6.55;;;5.60;99.90;;;;;;5127756;27;20296;-87
2022/12/05 02:50:33;;;;;;;9.55;6.10;;;5.60;99.90;;;;;;5112712;27;20038;-86
2022/12/05 02:53:04;;;;;;;11.38;6.60;;;6.50;99.90;;;;;;5127401;27;20783;-87
2022/12/05 02:55:31;;;;;;;11.40;6.00;;;5.60;99.90;;;;;;5128443;27;20054;-88
2022/12/05 02:58:02;;;;;;;8.23;5.90;;;5.60;99.90;;;;;;5123841;27;20051;-87
2022/12/05 03:00:27;;;;;;;8.40;6.10;;;5.50;99.90;;;;;;5107530;28;20077;-87
2022/12/05 03:02:57;;;;;;;7.35;5.78;;;5.60;99.90;;;;;;5124921;28;20210;-88
2022/12/05 03:05:58;;;;;;;10.13;6.90;;;6.40;99.90;;;;;;5106882;28;20039;-87
2022/12/05 03:08:29;;;;;;;10.30;5.57;;;5.60;99.90;;;;;;5102888;28;20506;-87
2022/12/05 03:10:57;;;;;;;11.15;6.60;;;6.60;99.90;;;;;;5124499;28;20122;-87
2022/12/05 03:13:42;;;;;;;12.10;6.55;;;5.60;99.90;;;;;;5107795;28;20545;-87
2022/12/05 03:16:15;;;;;;;15.45;5.97;;;6.30;99.90;;;;;;5108749;28;20073;-86
2022/12/05 03:18:44;;;;;;;;;;;5.50;99.90;;;;;;5107182;28;20050;-87
2022/12/05 03:21:23;;;;;;;12.80;5.80;;;6.00;99.90;;;;;;5125601;28;19919;-86
2022/12/05 03:24:03;;;;;;;12.82;6.25;;;5.50;99.90;;;;;;5123478;28;20573;-86
2022/12/05 03:26:45;;;;;;;9.85;5.75;;;5.50;99.90;;;;;;5124254;28;20043;-86
2022/12/05 03:29:23;;;;;;;8.35;5.53;;;5.60;99.90;;;;;;5125692;28;20410;-86
2022/12/05 03:32:33;;;;;;;13.77;6.25;;;5.50;99.90;;;;;;5106105;28;20042;-87
2022/12/05 03:35:29;;;;;;;8.35;6.18;;;5.50;99.90;;;;;;5123843;28;20054;-85
2022/12/05 03:38:10;;;;;;;11.23;5.40;;;5.50;99.90;;;;;;5108289;28;20085;-85
2022/12/05 03:41:13;;;;;;;11.95;6.22;;;5.50;99.90;;;;;;5106391;28;20114;-86
2022/12/05 03:43:57;;;;;;;9.75;6.10;;;5.50;99.90;;;;;;5124454;28;20146;-85
2022/12/05 03:46:46;;;;;;;10.60;6.47;;;5.50;99.90;;;;;;5107578;28;20047;-86
2022/12/05 03:49:25;;;;;;;12.57;7.20;;;5.50;99.90;;;;;;5105926;28;20043;-85
2022/12/05 03:51:57;;;;;;;14.85;7.03;;;5.50;99.90;;;;;;5123914;28;20046;-85
2022/12/05 03:54:27;;;;;;;10.43;6.43;;;5.50;99.90;;;;;;5123684;28;20035;-85
2022/12/05 03:57:14;;;;;;;10.43;6.97;;;5.50;99.90;;;;;;5106552;27;20051;-85
2022/12/05 04:00:09;;;;;;;13.45;6.93;;;5.50;99.90;;;;;;5128744;27;20601;-85
2022/12/05 04:03:16;;;;;;;14.20;7.13;;;5.50;99.90;;;;;;5110390;27;20046;-85
2022/12/05 04:06:00;;;;;;;14.80;7.82;;;5.50;99.90;;;;;;5127274;27;20056;-85
2022/12/05 04:08:30;;;;;;;12.15;6.80;;;6.20;99.90;;;;;;5111692;27;20541;-84
2022/12/05 04:11:14;;;;;;;17.67;9.18;;;5.50;99.90;;;;;;5110259;27;20047;-85
2022/12/05 04:13:53;;;;;;;10.68;6.93;;;5.50;99.90;;;;;;5110509;27;20425;-85
2022/12/05 04:19:25;;;;;;;15.23;7.25;;;5.80;99.90;;;;;;5126859;27;20468;-85
2022/12/05 04:21:54;;;;;;;14.07;6.78;;;5.50;99.90;;;;;;5128061;27;20051;-85
2022/12/05 04:27:26;;;;;;;17.83;7.60;;;5.50;99.90;;;;;;5126992;27;20405;-85
2022/12/05 04:30:16;;;;;;;11.45;7.25;;;6.00;99.90;;;;;;5129100;27;20423;-84
2022/12/05 04:33:12;;;;;;;18.42;6.82;;;5.50;99.90;;;;;;5128247;27;20630;-85
2022/12/05 04:35:44;;;;;;;14.63;7.32;;;5.50;99.90;;;;;;5109582;27;20491;-84
2022/12/05 04:38:51;;;;;;;12.25;6.85;;;5.50;99.90;;;;;;5130092;27;20121;-85
2022/12/05 04:41:22;;;;;;;13.43;6.50;;;5.50;99.90;;;;;;5027493;28;20045;-85
2022/12/05 04:43:51;;;;;;;12.82;7.78;;;5.50;99.90;;;;;;5011777;28;20041;-84
2022/12/05 04:46:19;;;;;;;14.80;7.10;;;5.50;99.90;;;;;;5088543;27;20058;-84
2022/12/05 04:48:51;;;;;;;14.95;7.00;;;5.50;99.90;;;;;;5126180;27;20047;-84
2022/12/05 04:51:24;;;;;;;15.02;7.43;;;5.60;99.90;;;;;;5128197;27;20410;-84
2022/12/05 04:53:55;;;;;;;16.15;7.25;;;5.60;99.90;;;;;;5127779;27;20039;-84
2022/12/05 04:56:23;;;;;;;10.35;6.97;;;6.40;99.90;;;;;;5130406;27;20531;-85
2022/12/05 04:58:48;;;;;;;13.48;7.28;;;5.90;99.90;;;;;;5132666;27;20051;-85
2022/12/05 05:01:32;;;;;;;13.07;7.57;;;5.60;99.90;;;;;;5131375;27;20042;-84
2022/12/05 05:04:08;;;;;;;14.38;6.85;;;5.60;99.90;;;;;;5133264;27;20125;-85
2022/12/05 05:06:37;;;;;;;11.82;6.65;;;5.60;99.90;;;;;;5131488;27;20030;-84
2022/12/05 05:09:04;;;;;;;13.23;6.68;;;6.50;99.90;;;;;;5130905;27;20047;-85
2022/12/05 05:11:33;;;;;;;12.32;6.95;;;5.50;99.90;;;;;;5132020;27;20518;-84
2022/12/05 05:13:59;;;;;;;12.25;6.90;;;5.70;99.90;;;;;;5132595;27;20042;-85
2022/12/05 05:16:31;;;;;;;15.20;7.15;;;5.60;99.90;;;;;;5116088;27;20050;-85
2022/12/05 05:18:57;;;;;;;13.20;7.68;;;5.60;99.90;;;;;;5132090;27;20397;-86
2022/12/05 05:21:30;;;;;;;11.25;6.72;;;6.30;99.90;;;;;;5133840;27;20039;-87
2022/12/05 05:23:56;;;;;;;15.40;7.22;;;5.60;99.90;;;;;;5114093;27;20043;-84
2022/12/05 05:26:23;;;;;;;11.73;6.65;;;5.60;99.90;;;;;;5148702;27;20039;-84
2022/12/05 05:28:49;;;;;;;16.02;7.38;;;5.60;99.90;;;;;;5148647;27;20045;-84
2022/12/05 05:31:15;;;;;;;10.75;6.47;;;5.60;99.90;;;;;;5129653;27;20373;-86
2022/12/05 05:33:41;;;;;;;10.43;6.80;;;5.60;99.90;;;;;;5149621;27;20406;-84
2022/12/05 05:36:12;;;;;;;17.02;6.78;;;5.80;99.90;;;;;;5111776;27;20045;-83
2022/12/05 05:38:43;;;;;;;14.50;7.03;;;5.60;99.90;;;;;;5130709;27;20142;-85
2022/12/05 05:41:32;;;;;;;14.30;7.30;;;5.60;99.90;;;;;;5112171;27;20081;-85
2022/12/05 05:43:58;;;;;;;13.82;6.70;;;5.60;99.90;;;;;;5129275;27;20038;-86
2022/12/05 05:46:27;;;;;;;12.00;6.20;;;5.60;99.90;;;;;;5095351;27;20050;-85
2022/12/05 05:48:53;;;;;;;13.05;6.75;;;5.60;99.90;;;;;;5146567;27;20118;-87
2022/12/05 05:51:20;;;;;;;12.48;6.50;;;6.10;99.90;;;;;;5112905;27;20078;-87
2022/12/05 05:53:46;;;;;;;10.80;6.50;;;6.60;99.90;;;;;;5127668;27;20046;-86
2022/12/05 05:56:14;;;;;;;9.52;6.00;;;5.60;99.90;;;;;;5129189;27;20054;-85
2022/12/05 05:58:40;;;;;;;17.00;8.10;;;5.90;99.90;;;;;;5128424;27;20079;-86
2022/12/05 06:01:09;;;;;;;11.45;6.45;;;5.60;99.90;;;;;;5111241;27;20047;-87
2022/12/05 06:03:34;;;;;;;15.25;6.45;;;5.60;99.90;;;;;;5112425;27;20186;-84
2022/12/05 06:06:03;;;;;;;11.77;6.18;;;5.60;99.90;;;;;;5110253;27;20074;-84
2022/12/05 06:08:30;;;;;;;13.85;6.25;;;5.50;99.90;;;;;;5112635;27;20384;-84
2022/12/05 06:10:56;;;;;;;18.35;5.95;;;5.90;99.90;;;;;;5110729;27;20039;-84
2022/12/05 06:13:22;;;;;;;10.25;6.18;;;5.60;99.90;;;;;;5095047;27;20039;-84
2022/12/05 06:15:47;;;;;;;17.67;6.95;;;5.60;99.90;;;;;;5093804;27;20061;-84
2022/12/05 06:18:13;;;;;;;12.07;6.22;;;6.20;99.90;;;;;;5110912;27;20429;-84
2022/12/05 06:20:39;;;;;;;13.80;6.80;;;5.60;99.90;;;;;;5111655;27;20402;-85
2022/12/05 06:23:04;;;;;;;14.98;6.18;;;5.60;99.90;;;;;;5110077;27;20129;-83
2022/12/05 06:25:30;;;;;;;16.00;5.88;;;5.60;99.90;;;;;;5129142;27;20477;-83
2022/12/05 06:27:56;;;;;;;15.38;6.30;;;6.40;99.90;;;;;;5093066;27;20061;-83
2022/12/05 06:30:21;;;;;;;14.25;5.68;;;5.60;99.90;;;;;;5095200;27;20053;-82
2022/12/05 06:32:47;;;;;;;10.80;5.90;;;6.70;99.90;;;;;;5127812;27;20042;-83
2022/12/05 06:35:15;;;;;;;19.13;7.10;;;5.60;99.90;;;;;;5093988;27;20050;-85
2022/12/05 06:37:42;;;;;;;23.02;9.45;;;5.60;99.90;;;;;;5111797;27;20390;-83
2022/12/05 06:40:09;;;;;;;15.35;7.20;;;6.20;99.90;;;;;;5126753;27;20039;-82
2022/12/05 06:42:34;;;;;;;16.13;7.13;;;5.60;99.90;;;;;;5095283;27;20401;-82
2022/12/05 06:45:01;;;;;;;15.82;6.65;;;5.60;99.90;;;;;;5126573;27;20043;-83
2022/12/05 06:47:27;;;;;;;10.95;5.78;;;5.60;99.90;;;;;;5094475;27;20256;-82
2022/12/05 06:49:52;;;;;;;17.55;7.20;;;5.60;99.90;;;;;;5093100;27;20081;-83
2022/12/05 06:52:18;;;;;;;24.40;7.47;;;6.10;99.90;;;;;;5110807;27;20091;-82
2022/12/05 06:54:45;;;;;;;17.23;8.20;;;6.30;99.90;;;;;;5094733;27;20118;-82
2022/12/05 06:57:12;;;;;;;19.52;7.88;;;5.60;99.90;;;;;;5089259;27;20054;-83
2022/12/05 06:59:37;;;;;;;15.75;7.15;;;6.10;99.90;;;;;;5125546;27;20434;-82
2022/12/05 07:02:06;;;;;;;11.60;6.28;;;6.10;99.90;;;;;;5105829;28;20042;-82
2022/12/05 07:04:33;;;;;;;15.45;7.00;;;5.60;99.90;;;;;;5125442;28;20051;-83
2022/12/05 07:07:00;;;;;;;14.15;6.50;;;5.60;99.90;;;;;;5106595;28;20063;-82
2022/12/05 07:09:46;;;;;;;19.88;8.02;;;5.60;99.90;;;;;;5106927;28;20128;-82
2022/12/05 07:12:15;;;;;;;22.38;7.43;;;6.60;99.90;;;;;;5124935;28;20047;-82
2022/12/05 07:14:41;;;;;;;13.38;7.38;;;5.60;99.90;;;;;;5123104;28;20367;-83
2022/12/05 07:17:07;;;;;;;16.23;6.75;;;5.60;99.90;;;;;;5126336;27;20517;-82
2022/12/05 07:19:33;;;;;;;20.10;8.50;;;5.70;99.90;;;;;;5123082;28;20047;-82
2022/12/05 07:21:59;;;;;;;16.17;6.63;;;6.50;99.90;;;;;;5124527;28;20479;-82
2022/12/05 07:24:25;;;;;;;15.82;6.55;;;6.60;99.90;;;;;;5125624;27;20031;-81
2022/12/05 07:26:50;;;;;;;21.08;7.35;;;5.70;99.90;;;;;;5125147;27;20396;-81
2022/12/05 07:29:16;;;;;;;17.83;7.57;;;5.70;99.90;;;;;;5125363;28;20043;-81
2022/12/05 07:31:41;;;;;;;13.80;6.32;;;5.70;99.90;;;;;;5125024;27;20490;-81
2022/12/05 07:34:07;;;;;;;15.85;7.22;;;5.70;99.90;;;;;;5129424;27;20440;-81
2022/12/05 07:36:33;;;;;;;19.75;10.40;;;5.70;99.90;;;;;;5127376;27;20111;-81
2022/12/05 07:38:59;;;;;;;16.38;6.53;;;5.70;99.90;;;;;;5130319;27;20054;-81
2022/12/05 07:41:28;;;;;;;17.05;6.00;;;5.70;99.90;;;;;;5129434;27;20039;-81
2022/12/05 07:43:55;;;;;;;12.20;6.13;;;6.60;99.90;;;;;;5127882;27;20039;-81
2022/12/05 07:46:22;;;;;;;16.27;5.90;;;6.30;99.90;;;;;;5130114;27;20035;-81
2022/12/05 07:48:49;;;;;;;15.15;6.50;;;5.70;99.90;;;;;;5127827;27;20500;-81
2022/12/05 07:51:15;;;;;;;14.23;6.00;;;5.80;99.90;;;;;;5128973;27;20382;-81
2022/12/05 07:53:43;;;;;;;13.93;6.43;;;5.80;99.90;;;;;;5128412;27;20121;-81
2022/12/05 07:56:15;;;;;;;16.50;6.95;;;6.70;99.90;;;;;;5112808;27;20130;-82
2022/12/05 07:58:42;;;;;;;17.73;6.63;;;5.70;99.90;;;;;;5130972;27;20047;-81
2022/12/05 08:01:14;;;;;;;14.43;6.63;;;5.80;99.90;;;;;;5130228;27;20042;-81
2022/12/05 08:03:40;;;;;;;14.68;6.25;;;5.80;99.90;;;;;;5114702;27;20083;-82
2022/12/05 08:06:09;;;;;;;12.40;6.43;;;6.20;99.90;;;;;;5130249;27;20050;-81
2022/12/05 08:08:36;;;;;;;18.85;9.00;;;5.80;99.90;;;;;;5115155;27;20091;-81
2022/12/05 08:11:14;;;;;;;14.77;6.63;;;5.80;99.90;;;;;;5130201;27;20067;-81
2022/12/05 08:13:40;;;;;;;19.73;6.07;;;5.80;99.90;;;;;;5114000;27;20453;-82
2022/12/05 08:16:11;;;;;;;17.70;6.28;;;5.80;99.90;;;;;;5131301;27;20045;-81
2022/12/05 08:18:37;;;;;;;12.73;5.63;;;5.80;99.90;;;;;;5147930;27;20489;-82
2022/12/05 08:21:15;;;;;;;10.38;5.43;;;5.80;99.90;;;;;;5150095;27;20038;-81
2022/12/05 08:23:42;;;;;;;12.23;6.47;;;5.80;99.90;;;;;;5148645;27;20078;-80
2022/12/05 08:26:29;;;;;;;16.80;5.90;;;6.30;99.90;;;;;;5130929;27;20135;-80
2022/12/05 08:29:04;;;;;;;9.73;5.38;;;5.80;99.90;;;;;;5113647;27;20046;-81
2022/12/05 08:31:33;;;;;;;11.60;5.60;;;5.90;99.90;;;;;;5112503;27;20061;-81
2022/12/05 08:33:59;;;;;;;10.98;6.22;;;5.80;99.90;;;;;;5115193;27;20085;-81
2022/12/05 08:36:27;;;;;;;14.05;6.28;;;6.70;99.90;;;;;;5112164;27;20046;-81
2022/12/05 08:38:58;;;;;;;22.20;6.63;;;5.80;99.90;;;;;;5131142;27;20061;-81
2022/12/05 08:41:27;;;;;;;11.70;6.30;;;5.80;99.90;;;;;;5113105;27;20522;-81
2022/12/05 08:43:54;;;;;;;13.25;6.18;;;5.80;99.90;;;;;;5112667;27;20043;-80
2022/12/05 08:46:20;;;;;;;16.55;6.22;;;5.80;99.90;;;;;;5114072;27;20110;-81
2022/12/05 08:48:46;;;;;;;12.60;6.28;;;5.80;99.90;;;;;;5111791;27;20049;-81
2022/12/05 08:51:12;;;;;;;12.45;6.00;;;6.70;99.90;;;;;;5131206;27;20043;-81
2022/12/05 08:53:39;;;;;;;14.40;6.55;;;5.80;99.90;;;;;;5129596;27;20046;-81
2022/12/05 08:56:07;;;;;;;16.60;6.15;;;5.80;99.90;;;;;;5113854;27;20057;-81
2022/12/05 08:58:33;;;;;;;12.20;6.35;;;5.80;99.90;;;;;;5112868;27;20091;-81
2022/12/05 09:01:06;;;;;;;18.35;6.07;;;5.80;99.90;;;;;;5079529;27;20042;-81
2022/12/05 09:03:32;;;;;;;16.63;7.40;;;5.80;99.90;;;;;;5113699;27;20094;-81
2022/12/05 09:06:21;;;;;;;15.65;7.38;;;5.80;99.90;;;;;;5111928;27;20126;-81
2022/12/05 09:08:48;;;;;;;12.88;6.35;;;6.40;99.90;;;;;;5149902;27;20043;-81
2022/12/05 09:11:17;;;;;;;12.98;6.57;;;6.00;99.90;;;;;;5113484;27;20046;-81
2022/12/05 09:13:43;;;;;;;13.63;6.32;;;5.80;99.90;;;;;;5133281;27;20170;-81
2022/12/05 09:16:12;;;;;;;14.60;8.43;;;6.70;99.90;;;;;;5115574;27;20498;-83
2022/12/05 09:18:38;;;;;;;15.50;7.40;;;5.80;99.90;;;;;;5130679;27;20030;-81
2022/12/05 09:21:10;;;;;;;20.13;6.45;;;5.80;99.90;;;;;;5097603;27;20035;-81
2022/12/05 09:23:36;;;;;;;14.10;6.45;;;5.80;99.90;;;;;;5149036;27;20035;-80
2022/12/05 09:26:02;;;;;;;13.07;6.68;;;5.80;99.90;;;;;;5151474;27;20045;-81
2022/12/05 09:28:29;;;;;;;15.93;6.55;;;5.80;99.90;;;;;;5115166;27;20053;-82
2022/12/05 09:31:03;;;;;;;12.40;6.38;;;6.70;99.90;;;;;;5132083;27;20111;-81
2022/12/05 09:33:31;;;;;;;17.17;7.05;;;5.80;99.90;;;;;;5132005;27;20047;-81
2022/12/05 09:35:56;;;;;;;10.95;6.22;;;6.80;99.90;;;;;;5147808;27;20054;-80
2022/12/05 09:38:22;;;;;;;17.23;6.55;;;5.90;99.90;;;;;;5130603;27;20046;-81
2022/12/05 09:45:16;;;;;;;13.98;7.13;;;5.90;99.90;;;;;;5064267;27;20042;-81
2022/12/05 09:48:03;;;;;;;16.50;6.53;;;5.90;99.90;;;;;;5010939;28;20052;-81
2022/12/05 09:50:43;;;;;;;15.05;6.57;;;5.90;99.90;;;;;;5125054;27;20137;-81
2022/12/05 09:53:08;;;;;;;18.08;7.10;;;5.90;99.90;;;;;;5111597;27;20398;-81
2022/12/05 09:55:51;;;;;;;19.20;7.30;;;5.90;99.90;;;;;;5111816;27;20039;-81
2022/12/05 09:58:54;;;;;;;13.25;7.07;;;6.90;99.90;;;;;;5146353;27;20081;-81
2022/12/05 10:01:37;;;;;;;21.55;7.30;;;6.10;99.90;;;;;;5025518;28;20051;-81
2022/12/05 10:04:06;;;;;;;16.48;7.30;;;5.90;99.90;;;;;;5122461;27;20462;-82
2022/12/05 10:06:56;;;;;;;15.50;7.13;;;5.90;99.90;;;;;;5110508;27;20107;-81
2022/12/05 10:09:46;;;;;;;13.70;6.72;;;5.90;99.90;;;;;;5147805;27;20050;-81
2022/12/05 10:12:21;;;;;;;17.38;8.65;;;5.90;99.90;;;;;;5129389;27;20453;-81
2022/12/05 10:14:55;;;;;;;22.45;7.32;;;5.90;99.90;;;;;;5127700;27;20459;-81
2022/12/05 10:17:30;;;;;;;16.90;7.57;;;5.90;99.90;;;;;;5148145;27;20049;-81
2022/12/05 10:19:59;;;;;;;19.15;7.45;;;5.90;99.90;;;;;;5128609;27;20041;-81
2022/12/05 10:22:39;;;;;;;17.27;7.38;;;5.90;99.90;;;;;;5146890;27;20144;-81
2022/12/05 10:25:06;;;;;;;11.30;7.40;;;5.80;99.90;;;;;;5129001;27;20053;-82
2022/12/05 10:27:36;;;;;;;16.80;7.10;;;5.90;99.90;;;;;;5127305;27;20054;-81
2022/12/05 10:30:13;;;;;;;13.77;6.50;;;6.10;99.90;;;;;;5129666;27;20445;-81
2022/12/05 10:32:57;;;;;;;19.83;7.18;;;5.90;99.90;;;;;;5111407;27;20038;-81
2022/12/05 10:35:33;;;;;;;14.15;7.00;;;5.90;99.90;;;;;;5110900;27;20171;-81
2022/12/05 10:38:04;;;;;;;15.40;7.85;;;5.90;99.90;;;;;;5129015;27;20054;-82
2022/12/05 10:40:42;;;;;;;15.20;7.03;;;5.90;99.90;;;;;;5145406;27;20039;-81
2022/12/05 10:43:13;;;;;;;15.73;6.93;;;5.90;99.90;;;;;;5147612;27;20042;-81
2022/12/05 10:45:43;;;;;;;16.65;6.75;;;5.90;99.90;;;;;;5111075;27;20046;-82
2022/12/05 10:48:12;;;;;;;13.82;6.72;;;5.90;99.90;;;;;;5146705;27;20606;-81
2022/12/05 10:50:41;;;;;;;14.88;6.63;;;6.70;99.90;;;;;;5147211;27;20140;-81
2022/12/05 10:53:07;;;;;;;12.82;6.93;;;6.50;99.90;;;;;;5109668;27;20500;-81
2022/12/05 10:55:39;;;;;;;9.50;6.00;;;5.90;99.90;;;;;;5128767;27;20047;-81
2022/12/05 10:58:15;;;;;;;12.43;5.72;;;5.90;99.90;;;;;;5122745;27;20055;-81
2022/12/05 11:00:45;;;;;;;11.90;6.03;;;5.90;99.90;;;;;;5124105;28;20104;-81
2022/12/05 11:03:21;;;;;;;13.57;6.70;;;5.90;99.90;;;;;;5106965;28;20126;-81
2022/12/05 11:05:52;;;;;;;14.15;6.13;;;5.90;99.90;;;;;;5122049;27;20053;-81
2022/12/05 11:08:23;;;;;;;11.75;6.20;;;5.90;99.90;;;;;;5125371;27;20031;-81
2022/12/05 11:11:05;;;;;;;9.90;5.72;;;5.90;99.90;;;;;;5124146;27;20039;-81
2022/12/05 11:13:32;;;;;;;10.90;5.40;;;5.90;99.90;;;;;;5107171;28;20058;-81
2022/12/05 11:15:58;;;;;;;13.45;5.95;;;5.90;99.90;;;;;;5123912;28;20055;-81
2022/12/05 11:18:27;;;;;;;11.75;5.68;;;5.90;99.90;;;;;;5124237;27;20119;-81
2022/12/05 11:20:53;;;;;;;21.67;11.95;;;5.90;99.90;;;;;;5124485;28;20071;-81
2022/12/05 11:23:25;;;;;;;12.98;5.78;;;6.30;99.90;;;;;;5123525;27;20474;-81
2022/12/05 11:25:51;;;;;;;11.57;5.13;;;5.90;99.90;;;;;;5125570;27;20037;-81
2022/12/05 11:28:16;;;;;;;9.93;5.40;;;5.90;99.90;;;;;;5122846;28;20382;-81
2022/12/05 11:30:57;;;;;;;8.20;4.78;;;5.90;99.90;;;;;;5125378;28;20134;-81
2022/12/05 11:33:26;;;;;;;11.52;5.13;;;5.90;99.90;;;;;;5125259;27;20092;-81
2022/12/05 11:35:56;;;;;;;12.80;4.85;;;6.70;99.90;;;;;;5121701;28;20054;-81
2022/12/05 11:38:26;;;;;;;15.40;4.82;;;6.80;99.90;;;;;;5123862;28;20043;-80
2022/12/05 11:40:59;;;;;;;13.13;4.95;;;5.90;99.90;;;;;;5122135;28;20114;-80
2022/12/05 11:43:43;;;;;;;9.32;4.13;;;5.90;99.90;;;;;;5123918;28;20512;-80
2022/12/05 11:46:41;;;;;;;9.35;4.25;;;5.90;99.90;;;;;;5123529;28;20043;-81
2022/12/05 11:49:26;;;;;;;11.93;4.38;;;5.90;99.90;;;;;;5102625;28;20402;-80
2022/12/05 11:52:16;;;;;;;6.43;3.95;;;5.90;99.90;;;;;;5123616;28;20505;-81
2022/12/05 11:54:42;;;;;;;10.07;5.03;;;5.90;99.90;;;;;;5106316;28;20047;-79
2022/12/05 11:58:57;;;;;;;8.55;4.10;;;5.90;99.90;;;;;;5149443;27;1239199;-80
2022/12/05 12:01:36;;;;;;;8.57;3.15;;;5.90;99.90;;;;;;5133520;27;20058;-80
2022/12/05 12:04:25;;;;;;;10.32;3.53;;;5.80;99.90;;;;;;5133353;27;20349;-80
2022/12/05 12:06:59;;;;;;;7.63;3.70;;;6.20;99.90;;;;;;5119926;27;20050;-80
2022/12/05 12:09:49;;;;;;;9.80;4.22;;;5.80;99.90;;;;;;5150512;27;20087;-80
2022/12/05 12:12:31;;;;;;;6.22;3.28;;;5.80;99.90;;;;;;5117523;27;20039;-80
2022/12/05 12:15:21;;;;;;;7.88;3.65;;;5.80;99.90;;;;;;5112391;27;20554;-80
2022/12/05 12:17:58;;;;;;;8.25;3.25;;;5.80;99.90;;;;;;5129541;27;20053;-80
2022/12/05 12:20:33;;;;;;;7.55;3.47;;;5.80;99.90;;;;;;5129162;27;20039;-81
2022/12/05 12:23:27;;;;;;;7.15;3.45;;;5.80;99.90;;;;;;5129563;27;20062;-80
2022/12/05 12:26:32;;;;;;;7.65;3.55;;;5.80;99.90;;;;;;5112107;27;20443;-80
2022/12/05 12:29:09;;;;;;;7.07;3.72;;;5.80;99.90;;;;;;5113759;27;20137;-80
2022/12/05 12:31:58;;;;;;;12.90;6.65;;;5.80;99.90;;;;;;5112348;27;20046;-80
2022/12/05 12:34:41;;;;;;;5.03;3.13;;;5.80;99.90;;;;;;5111926;27;20235;-80
2022/12/05 12:37:34;;;;;;;8.25;3.53;;;5.80;99.90;;;;;;5111753;27;20043;-80
2022/12/05 12:40:02;;;;;;;10.52;3.90;;;5.80;99.90;;;;;;5099123;27;20059;-80
2022/12/05 12:42:56;;;;;;;9.73;3.38;;;5.80;99.90;;;;;;5128745;27;20038;-80
2022/12/05 12:45:36;;;;;;;10.52;2.95;;;5.80;99.90;;;;;;5128857;27;20035;-80
2022/12/05 12:48:21;;;;;;;10.15;3.90;;;5.90;99.90;;;;;;5112027;27;20043;-81
2022/12/05 12:50:51;;;;;;;6.70;2.95;;;5.90;99.90;;;;;;5129016;27;20466;-81
2022/12/05 12:53:33;;;;;;;6.72;2.75;;;5.90;99.90;;;;;;5128840;27;20035;-81
2022/12/05 12:56:28;;;;;;;9.98;3.15;;;5.90;99.90;;;;;;5128716;27;20055;-81
2022/12/05 12:59:34;;;;;;;5.90;2.53;;;5.90;99.90;;;;;;5110494;27;20039;-81
2022/12/05 13:02:15;;;;;;;11.50;3.25;;;5.90;99.90;;;;;;5127641;27;20138;-81
2022/12/05 13:04:51;;;;;;;8.18;3.35;;;5.90;99.90;;;;;;5127527;27;20474;-80
2022/12/05 13:07:33;;;;;;;6.80;2.60;;;6.50;99.90;;;;;;5110486;27;20065;-80
2022/12/05 13:10:11;;;;;;;12.85;2.70;;;5.90;99.90;;;;;;5096980;27;20066;-81
2022/12/05 13:12:39;;;;;;;5.65;2.67;;;6.10;99.90;;;;;;5112869;27;20039;-80
2022/12/05 13:15:12;;;;;;;8.32;3.05;;;5.80;99.90;;;;;;5096320;27;20046;-81
2022/12/05 13:17:39;;;;;;;;;;;5.90;99.90;;;;;;5113593;27;20379;-80
2022/12/05 13:20:12;;;;;;;9.57;2.97;;;5.80;99.90;;;;;;5113934;27;20372;-80
2022/12/05 13:22:38;;;;;;;6.25;2.08;;;5.80;99.90;;;;;;5113295;27;20043;-80
2022/12/05 13:25:04;;;;;;;9.68;2.72;;;5.90;99.90;;;;;;5113031;27;20039;-80
2022/12/05 13:27:30;;;;;;;9.20;3.20;;;5.90;99.90;;;;;;5113466;27;20408;-80